Galeon Andalucia — EAIZ — position and weather

sailwx.info

Track history (hours):
 
Tides and Currents Weather Stations Pressure Air Temp Water Temp Dewpoint Dewpoint Depression Visibility Wind Speed Wind Dir Waves Ship Positions

Galeon Andalucia

Last reported at 2020-Jul-04 19:41 UTC. Time now 2020-Aug-07 10:22 UTC.
Position N 43°38' W 005°21'.
Warning: this ship's position is 33 days out of date.

Length 47 m; draft 3.2 m.

Type: Ship. MMSI: 225356000.

Date/timePositionNaut miles runAvg speedWind from/ knotsBaromVisibWave heightAir tempDewpointWater temp
2020-Jul-04 19:41N 43°38' W 005°21'1 6.2
2020-Jul-04 19:28N 43°38' W 005°23'5 5.6
2020-Jul-04 18:30N 43°40' W 005°30'175 4.9
2020-Jul-03 06:29N 42°11' W 008°56'204 5.7
2020-Jul-01 18:30N 38°49' W 009°33'15 6.2
2020-Jul-01 16:00N 38°35' W 009°25'14 5.6
2020-Jul-01 13:30N 38°24' W 009°15'52 6.5
2020-Jul-01 05:30N 37°33' W 009°02'10 6.0
2020-Jul-01 03:55N 37°23' W 009°03'8 5.4
2020-Jul-01 02:30N 37°15' W 009°04'10 4.0
2020-Jul-01 00:00N 37°06' W 009°03'7 2.9
2020-Jun-30 21:29N 36°58' W 009°01'18 5.9
2020-Jun-30 18:30N 36°59' W 008°39'3 6.8
2020-Jun-30 18:00N 36°59' W 008°35'4 7.0
2020-Jun-30 17:30N 36°58' W 008°30'7 7.0
2020-Jun-30 16:28N 36°57' W 008°21'7 7.2
2020-Jun-30 15:30N 36°56' W 008°13'7 7.6
2020-Jun-30 14:30N 36°57' W 008°03'8 7.7
2020-Jun-30 13:30N 36°57' W 007°54'  
Track history (hours):
 
Tides and Currents Weather Stations Pressure Air Temp Water Temp Dewpoint Dewpoint Depression Visibility Wind Speed Wind Dir Waves Ship Positions

Galeon Andalucia

Last reported at 2020-Jul-04 19:41 UTC. Time now 2020-Aug-07 10:22 UTC.
Position N 43°38' W 005°21'.
Warning: this ship's position is 33 days out of date.

Length 47 m; draft 3.2 m.

Type: Ship. MMSI: 225356000.

Date/timePositionNaut miles runAvg speedWind from/ knotsBaromVisibWave heightAir tempDewpointWater temp
2020-Jul-04 19:41N 43°38' W 005°21'1 6.2
2020-Jul-04 19:28N 43°38' W 005°23'5 5.6
2020-Jul-04 18:30N 43°40' W 005°30'175 4.9
2020-Jul-03 06:29N 42°11' W 008°56'204 5.7
2020-Jul-01 18:30N 38°49' W 009°33'15 6.2
2020-Jul-01 16:00N 38°35' W 009°25'14 5.6
2020-Jul-01 13:30N 38°24' W 009°15'52 6.5
2020-Jul-01 05:30N 37°33' W 009°02'10 6.0
2020-Jul-01 03:55N 37°23' W 009°03'8 5.4
2020-Jul-01 02:30N 37°15' W 009°04'10 4.0
2020-Jul-01 00:00N 37°06' W 009°03'7 2.9
2020-Jun-30 21:29N 36°58' W 009°01'18 5.9
2020-Jun-30 18:30N 36°59' W 008°39'3 6.8
2020-Jun-30 18:00N 36°59' W 008°35'4 7.0
2020-Jun-30 17:30N 36°58' W 008°30'7 7.0
2020-Jun-30 16:28N 36°57' W 008°21'7 7.2
2020-Jun-30 15:30N 36°56' W 008°13'7 7.6
2020-Jun-30 14:30N 36°57' W 008°03'8 7.7
2020-Jun-30 13:30N 36°57' W 007°54'  

Dump ship's entire track history